Northwood, Ohio
Current Conditions -  °F | °C
As of 4:12 PM on Friday 28 Nov 2014 (Local Time) from KTDZ Reporting Station
Light Snow Light Snow  
Wind Chill: 19°   Ceiling: 5500
Heat Index: 27°   Visibility: 4mi
Dew Point: 22°   Wind: 8mph
Humidity: 81%   Direction: 200°SSW
Pressure: 30.21"   Gusts: NA
Location:  41.61°N, 83.48°W
Report Text: KTDZ 282112Z AUTO 20007KT 4SM -SN FEW020 BKN055 OVC100 M03/M06 A3021 RMK AO2 P0000 T10281056 TSNO
Loading
Personal Weather Stations






























Interactive Weather Map New forecast layout! Learn more

10-Day Weather Forecast

Advertisements
Track Severe Weather on mobile